Terminal Aerodrome Forecast
Issued by NWS

Home | Current Version | Previous Version | Text Only | Print | Product List | Glossary On
Versions: 1 2 3 4 5 6 7 8 9 10 11 12 13 14 15
993
FTUS42 KMLB 211139
TAFTIX
TAF
KTIX 211139Z 2112/2212 19006KT P6SM FEW250
     FM211400 21009KT P6SM FEW010 BKN250
     FM211800 20012KT P6SM SCT035 SCT150 BKN250
     FM220000 20004KT P6SM SCT150 BKN250
     FM220800 19008KT P6SM BKN035 WS015/22030KT=

USA.gov is the U.S. government's official web portal to all federal, state and local government web resources and services.